sensor_id;sensor_type;location;lat;lon;timestamp;P1;durP1;ratioP1;P2;durP2;ratioP2
45536;SDS011;31262;51.978;5.924;2022-07-30T00:00:55;9.02;;;3.42;;
45536;SDS011;31262;51.978;5.924;2022-07-30T00:03:21;6.00;;;3.10;;
45536;SDS011;31262;51.978;5.924;2022-07-30T00:05:46;10.27;;;3.40;;
45536;SDS011;31262;51.978;5.924;2022-07-30T00:08:12;7.25;;;3.25;;
45536;SDS011;31262;51.978;5.924;2022-07-30T00:10:38;6.55;;;2.92;;
45536;SDS011;31262;51.978;5.924;2022-07-30T00:13:04;5.95;;;3.00;;
45536;SDS011;31262;51.978;5.924;2022-07-30T00:15:30;6.07;;;2.97;;
45536;SDS011;31262;51.978;5.924;2022-07-30T00:17:56;6.70;;;2.95;;
45536;SDS011;31262;51.978;5.924;2022-07-30T00:20:21;9.18;;;3.28;;
45536;SDS011;31262;51.978;5.924;2022-07-30T00:22:47;7.15;;;2.95;;
45536;SDS011;31262;51.978;5.924;2022-07-30T00:25:13;5.95;;;3.08;;
45536;SDS011;31262;51.978;5.924;2022-07-30T00:27:39;8.80;;;3.38;;
45536;SDS011;31262;51.978;5.924;2022-07-30T00:30:04;5.88;;;3.08;;
45536;SDS011;31262;51.978;5.924;2022-07-30T00:32:31;8.38;;;3.22;;
45536;SDS011;31262;51.978;5.924;2022-07-30T00:34:56;5.55;;;2.78;;
45536;SDS011;31262;51.978;5.924;2022-07-30T00:37:22;6.65;;;2.97;;
45536;SDS011;31262;51.978;5.924;2022-07-30T00:39:47;5.97;;;2.78;;
45536;SDS011;31262;51.978;5.924;2022-07-30T00:42:13;7.45;;;3.17;;
45536;SDS011;31262;51.978;5.924;2022-07-30T00:44:39;6.82;;;3.05;;
45536;SDS011;31262;51.978;5.924;2022-07-30T00:47:05;6.03;;;2.92;;
45536;SDS011;31262;51.978;5.924;2022-07-30T00:49:31;6.47;;;3.03;;
45536;SDS011;31262;51.978;5.924;2022-07-30T00:51:56;6.30;;;2.45;;
45536;SDS011;31262;51.978;5.924;2022-07-30T00:54:22;7.22;;;2.70;;
45536;SDS011;31262;51.978;5.924;2022-07-30T00:56:48;5.63;;;2.83;;
45536;SDS011;31262;51.978;5.924;2022-07-30T00:59:13;7.13;;;2.58;;
45536;SDS011;31262;51.978;5.924;2022-07-30T01:01:39;5.32;;;2.22;;
45536;SDS011;31262;51.978;5.924;2022-07-30T01:04:05;7.22;;;2.47;;
45536;SDS011;31262;51.978;5.924;2022-07-30T01:06:35;5.85;;;2.47;;
45536;SDS011;31262;51.978;5.924;2022-07-30T01:09:02;5.53;;;2.67;;
45536;SDS011;31262;51.978;5.924;2022-07-30T01:11:30;6.30;;;2.72;;
45536;SDS011;31262;51.978;5.924;2022-07-30T01:14:00;5.45;;;2.33;;
45536;SDS011;31262;51.978;5.924;2022-07-30T01:16:27;6.68;;;2.13;;
45536;SDS011;31262;51.978;5.924;2022-07-30T01:18:53;8.05;;;2.38;;
45536;SDS011;31262;51.978;5.924;2022-07-30T01:21:40;7.45;;;2.70;;
45536;SDS011;31262;51.978;5.924;2022-07-30T01:24:21;4.80;;;2.53;;
45536;SDS011;31262;51.978;5.924;2022-07-30T01:26:52;5.30;;;2.97;;
45536;SDS011;31262;51.978;5.924;2022-07-30T01:29:19;5.35;;;2.60;;
45536;SDS011;31262;51.978;5.924;2022-07-30T01:31:47;5.80;;;3.00;;
45536;SDS011;31262;51.978;5.924;2022-07-30T01:34:14;6.40;;;3.40;;
45536;SDS011;31262;51.978;5.924;2022-07-30T01:36:41;6.05;;;2.85;;
45536;SDS011;31262;51.978;5.924;2022-07-30T01:39:09;9.30;;;3.60;;
45536;SDS011;31262;51.978;5.924;2022-07-30T01:41:37;6.72;;;3.67;;
45536;SDS011;31262;51.978;5.924;2022-07-30T01:44:03;6.75;;;3.63;;
45536;SDS011;31262;51.978;5.924;2022-07-30T01:46:30;5.60;;;3.63;;
45536;SDS011;31262;51.978;5.924;2022-07-30T01:48:57;7.03;;;4.50;;
45536;SDS011;31262;51.978;5.924;2022-07-30T01:51:23;8.02;;;4.07;;
45536;SDS011;31262;51.978;5.924;2022-07-30T01:53:50;7.07;;;4.25;;
45536;SDS011;31262;51.978;5.924;2022-07-30T01:56:17;7.18;;;4.00;;
45536;SDS011;31262;51.978;5.924;2022-07-30T01:58:47;6.88;;;4.40;;
45536;SDS011;31262;51.978;5.924;2022-07-30T02:01:14;7.28;;;3.78;;
45536;SDS011;31262;51.978;5.924;2022-07-30T02:03:40;7.38;;;4.15;;
45536;SDS011;31262;51.978;5.924;2022-07-30T02:06:07;5.82;;;3.90;;
45536;SDS011;31262;51.978;5.924;2022-07-30T02:11:18;8.15;;;4.35;;
45536;SDS011;31262;51.978;5.924;2022-07-30T02:14:08;8.27;;;3.95;;
45536;SDS011;31262;51.978;5.924;2022-07-30T02:16:41;6.95;;;4.18;;
45536;SDS011;31262;51.978;5.924;2022-07-30T02:19:13;7.75;;;4.50;;
45536;SDS011;31262;51.978;5.924;2022-07-30T02:21:42;7.22;;;4.68;;
45536;SDS011;31262;51.978;5.924;2022-07-30T02:24:12;7.57;;;4.03;;
45536;SDS011;31262;51.978;5.924;2022-07-30T02:29:07;8.57;;;3.95;;
45536;SDS011;31262;51.978;5.924;2022-07-30T02:31:34;6.43;;;4.35;;
45536;SDS011;31262;51.978;5.924;2022-07-30T02:34:02;11.27;;;5.32;;
45536;SDS011;31262;51.978;5.924;2022-07-30T02:36:29;7.60;;;4.75;;
45536;SDS011;31262;51.978;5.924;2022-07-30T02:38:57;7.13;;;5.45;;
45536;SDS011;31262;51.978;5.924;2022-07-30T02:41:25;8.35;;;4.97;;
45536;SDS011;31262;51.978;5.924;2022-07-30T02:43:53;6.47;;;4.60;;
45536;SDS011;31262;51.978;5.924;2022-07-30T02:46:21;7.47;;;4.40;;
45536;SDS011;31262;51.978;5.924;2022-07-30T02:48:48;5.90;;;3.33;;
45536;SDS011;31262;51.978;5.924;2022-07-30T02:51:15;5.93;;;3.58;;
45536;SDS011;31262;51.978;5.924;2022-07-30T02:53:42;7.65;;;3.88;;
45536;SDS011;31262;51.978;5.924;2022-07-30T02:56:11;7.35;;;4.03;;
45536;SDS011;31262;51.978;5.924;2022-07-30T02:58:39;7.68;;;4.43;;
45536;SDS011;31262;51.978;5.924;2022-07-30T03:01:08;4.93;;;3.13;;
45536;SDS011;31262;51.978;5.924;2022-07-30T03:06:04;6.95;;;3.92;;
45536;SDS011;31262;51.978;5.924;2022-07-30T03:08:31;6.57;;;4.00;;
45536;SDS011;31262;51.978;5.924;2022-07-30T03:10:58;8.63;;;4.72;;
45536;SDS011;31262;51.978;5.924;2022-07-30T03:13:24;8.85;;;4.65;;
45536;SDS011;31262;51.978;5.924;2022-07-30T03:15:50;8.63;;;4.68;;
45536;SDS011;31262;51.978;5.924;2022-07-30T03:18:18;7.15;;;4.20;;
45536;SDS011;31262;51.978;5.924;2022-07-30T03:20:45;9.18;;;5.57;;
45536;SDS011;31262;51.978;5.924;2022-07-30T03:23:14;6.93;;;4.53;;
45536;SDS011;31262;51.978;5.924;2022-07-30T03:25:42;8.13;;;4.93;;
45536;SDS011;31262;51.978;5.924;2022-07-30T03:28:12;5.88;;;4.38;;
45536;SDS011;31262;51.978;5.924;2022-07-30T03:30:39;6.05;;;4.75;;
45536;SDS011;31262;51.978;5.924;2022-07-30T03:33:07;7.00;;;4.13;;
45536;SDS011;31262;51.978;5.924;2022-07-30T03:35:34;8.75;;;5.13;;
45536;SDS011;31262;51.978;5.924;2022-07-30T03:38:01;8.35;;;4.13;;
45536;SDS011;31262;51.978;5.924;2022-07-30T03:40:27;7.45;;;4.55;;
45536;SDS011;31262;51.978;5.924;2022-07-30T03:42:53;9.02;;;5.05;;
45536;SDS011;31262;51.978;5.924;2022-07-30T03:45:19;7.00;;;5.05;;
45536;SDS011;31262;51.978;5.924;2022-07-30T03:47:45;7.70;;;4.60;;
45536;SDS011;31262;51.978;5.924;2022-07-30T03:50:12;7.93;;;4.97;;
45536;SDS011;31262;51.978;5.924;2022-07-30T03:52:39;6.60;;;5.00;;
45536;SDS011;31262;51.978;5.924;2022-07-30T03:55:06;6.25;;;4.65;;
45536;SDS011;31262;51.978;5.924;2022-07-30T03:57:34;9.27;;;5.20;;
45536;SDS011;31262;51.978;5.924;2022-07-30T04:00:01;7.53;;;4.10;;
45536;SDS011;31262;51.978;5.924;2022-07-30T04:02:28;5.97;;;4.68;;
45536;SDS011;31262;51.978;5.924;2022-07-30T04:04:54;6.13;;;4.32;;
45536;SDS011;31262;51.978;5.924;2022-07-30T04:07:19;6.35;;;4.32;;
45536;SDS011;31262;51.978;5.924;2022-07-30T04:09:46;6.20;;;4.72;;
45536;SDS011;31262;51.978;5.924;2022-07-30T04:12:11;7.75;;;4.68;;
45536;SDS011;31262;51.978;5.924;2022-07-30T04:14:42;7.47;;;4.28;;
45536;SDS011;31262;51.978;5.924;2022-07-30T04:17:10;6.78;;;3.83;;
45536;SDS011;31262;51.978;5.924;2022-07-30T04:19:43;7.88;;;4.70;;
45536;SDS011;31262;51.978;5.924;2022-07-30T04:22:14;7.35;;;4.15;;
45536;SDS011;31262;51.978;5.924;2022-07-30T04:24:42;6.22;;;4.10;;
45536;SDS011;31262;51.978;5.924;2022-07-30T04:27:08;7.68;;;4.03;;
45536;SDS011;31262;51.978;5.924;2022-07-30T04:29:35;6.00;;;3.90;;
45536;SDS011;31262;51.978;5.924;2022-07-30T04:32:00;6.82;;;3.92;;
45536;SDS011;31262;51.978;5.924;2022-07-30T04:34:26;6.35;;;3.15;;
45536;SDS011;31262;51.978;5.924;2022-07-30T04:36:52;7.07;;;4.00;;
45536;SDS011;31262;51.978;5.924;2022-07-30T04:39:18;6.95;;;4.18;;
45536;SDS011;31262;51.978;5.924;2022-07-30T04:41:44;9.15;;;4.30;;
45536;SDS011;31262;51.978;5.924;2022-07-30T04:44:09;6.72;;;3.47;;
45536;SDS011;31262;51.978;5.924;2022-07-30T04:46:35;7.70;;;3.75;;
45536;SDS011;31262;51.978;5.924;2022-07-30T04:49:01;8.02;;;3.72;;
45536;SDS011;31262;51.978;5.924;2022-07-30T04:51:33;6.70;;;3.45;;
45536;SDS011;31262;51.978;5.924;2022-07-30T04:54:01;6.22;;;3.53;;
45536;SDS011;31262;51.978;5.924;2022-07-30T04:56:29;7.07;;;3.53;;
45536;SDS011;31262;51.978;5.924;2022-07-30T04:58:56;7.32;;;3.80;;
45536;SDS011;31262;51.978;5.924;2022-07-30T05:01:23;8.55;;;4.13;;
45536;SDS011;31262;51.978;5.924;2022-07-30T05:03:55;8.48;;;3.67;;
45536;SDS011;31262;51.978;5.924;2022-07-30T05:06:21;9.70;;;3.63;;
45536;SDS011;31262;51.978;5.924;2022-07-30T05:08:49;6.88;;;3.72;;
45536;SDS011;31262;51.978;5.924;2022-07-30T05:11:15;7.95;;;3.92;;
45536;SDS011;31262;51.978;5.924;2022-07-30T05:13:46;8.43;;;3.80;;
45536;SDS011;31262;51.978;5.924;2022-07-30T05:16:13;8.23;;;3.33;;
45536;SDS011;31262;51.978;5.924;2022-07-30T05:18:39;6.35;;;4.10;;
45536;SDS011;31262;51.978;5.924;2022-07-30T05:21:05;6.30;;;3.50;;
45536;SDS011;31262;51.978;5.924;2022-07-30T05:23:32;8.27;;;3.72;;
45536;SDS011;31262;51.978;5.924;2022-07-30T05:25:58;7.40;;;3.33;;
45536;SDS011;31262;51.978;5.924;2022-07-30T05:28:23;5.72;;;3.15;;
45536;SDS011;31262;51.978;5.924;2022-07-30T05:30:52;5.03;;;2.60;;
45536;SDS011;31262;51.978;5.924;2022-07-30T05:33:19;8.68;;;3.47;;
45536;SDS011;31262;51.978;5.924;2022-07-30T05:35:45;6.75;;;2.95;;
45536;SDS011;31262;51.978;5.924;2022-07-30T05:38:10;6.75;;;3.20;;
45536;SDS011;31262;51.978;5.924;2022-07-30T05:40:37;6.63;;;2.95;;
45536;SDS011;31262;51.978;5.924;2022-07-30T05:43:02;4.13;;;2.28;;
45536;SDS011;31262;51.978;5.924;2022-07-30T05:45:30;5.60;;;2.47;;
45536;SDS011;31262;51.978;5.924;2022-07-30T05:47:56;6.03;;;2.38;;
45536;SDS011;31262;51.978;5.924;2022-07-30T05:50:22;5.20;;;2.10;;
45536;SDS011;31262;51.978;5.924;2022-07-30T05:52:48;6.47;;;2.40;;
45536;SDS011;31262;51.978;5.924;2022-07-30T05:55:13;5.15;;;2.30;;
45536;SDS011;31262;51.978;5.924;2022-07-30T05:57:39;7.82;;;2.53;;
45536;SDS011;31262;51.978;5.924;2022-07-30T06:00:08;6.20;;;2.10;;
45536;SDS011;31262;51.978;5.924;2022-07-30T06:02:35;3.75;;;1.67;;
45536;SDS011;31262;51.978;5.924;2022-07-30T06:05:01;4.78;;;2.13;;
45536;SDS011;31262;51.978;5.924;2022-07-30T06:07:27;5.32;;;2.05;;
45536;SDS011;31262;51.978;5.924;2022-07-30T06:09:53;3.78;;;1.90;;
45536;SDS011;31262;51.978;5.924;2022-07-30T06:12:24;4.07;;;1.95;;
45536;SDS011;31262;51.978;5.924;2022-07-30T06:14:50;4.38;;;1.88;;
45536;SDS011;31262;51.978;5.924;2022-07-30T06:17:16;4.25;;;2.03;;
45536;SDS011;31262;51.978;5.924;2022-07-30T06:19:41;4.55;;;1.83;;
45536;SDS011;31262;51.978;5.924;2022-07-30T06:22:07;5.00;;;1.65;;
45536;SDS011;31262;51.978;5.924;2022-07-30T06:24:33;5.43;;;1.30;;
45536;SDS011;31262;51.978;5.924;2022-07-30T06:26:58;4.05;;;1.50;;
45536;SDS011;31262;51.978;5.924;2022-07-30T06:29:24;3.22;;;1.40;;
45536;SDS011;31262;51.978;5.924;2022-07-30T06:31:50;5.07;;;1.65;;
45536;SDS011;31262;51.978;5.924;2022-07-30T06:34:15;8.38;;;1.95;;
45536;SDS011;31262;51.978;5.924;2022-07-30T06:36:41;6.22;;;1.75;;
45536;SDS011;31262;51.978;5.924;2022-07-30T06:39:07;8.55;;;1.80;;
45536;SDS011;31262;51.978;5.924;2022-07-30T06:41:35;3.90;;;1.35;;
45536;SDS011;31262;51.978;5.924;2022-07-30T06:44:01;3.83;;;1.08;;
45536;SDS011;31262;51.978;5.924;2022-07-30T06:46:27;2.85;;;0.90;;
45536;SDS011;31262;51.978;5.924;2022-07-30T06:48:53;4.57;;;1.08;;
45536;SDS011;31262;51.978;5.924;2022-07-30T06:51:18;5.85;;;1.45;;
45536;SDS011;31262;51.978;5.924;2022-07-30T06:53:44;3.58;;;1.20;;
45536;SDS011;31262;51.978;5.924;2022-07-30T06:56:10;4.63;;;1.00;;
45536;SDS011;31262;51.978;5.924;2022-07-30T06:58:36;4.43;;;1.35;;
45536;SDS011;31262;51.978;5.924;2022-07-30T07:01:02;3.33;;;0.93;;
45536;SDS011;31262;51.978;5.924;2022-07-30T07:03:28;2.65;;;0.95;;
45536;SDS011;31262;51.978;5.924;2022-07-30T07:05:53;4.40;;;1.50;;
45536;SDS011;31262;51.978;5.924;2022-07-30T07:08:19;3.00;;;0.82;;
45536;SDS011;31262;51.978;5.924;2022-07-30T07:10:45;3.60;;;1.10;;
45536;SDS011;31262;51.978;5.924;2022-07-30T07:13:10;4.55;;;0.93;;
45536;SDS011;31262;51.978;5.924;2022-07-30T07:15:36;5.03;;;0.88;;
45536;SDS011;31262;51.978;5.924;2022-07-30T07:18:02;3.88;;;1.00;;
45536;SDS011;31262;51.978;5.924;2022-07-30T07:20:28;3.95;;;0.90;;
45536;SDS011;31262;51.978;5.924;2022-07-30T07:22:53;2.92;;;0.98;;
45536;SDS011;31262;51.978;5.924;2022-07-30T07:25:19;5.07;;;0.90;;
45536;SDS011;31262;51.978;5.924;2022-07-30T07:27:44;2.78;;;1.00;;
45536;SDS011;31262;51.978;5.924;2022-07-30T07:30:10;3.53;;;1.23;;
45536;SDS011;31262;51.978;5.924;2022-07-30T07:32:36;5.43;;;0.88;;
45536;SDS011;31262;51.978;5.924;2022-07-30T07:35:02;4.45;;;0.90;;
45536;SDS011;31262;51.978;5.924;2022-07-30T07:37:28;4.65;;;1.00;;
45536;SDS011;31262;51.978;5.924;2022-07-30T07:39:54;3.88;;;0.98;;
45536;SDS011;31262;51.978;5.924;2022-07-30T07:42:19;3.85;;;0.82;;
45536;SDS011;31262;51.978;5.924;2022-07-30T07:44:45;2.28;;;0.80;;
45536;SDS011;31262;51.978;5.924;2022-07-30T07:47:11;3.70;;;0.88;;
45536;SDS011;31262;51.978;5.924;2022-07-30T07:49:36;3.17;;;0.70;;
45536;SDS011;31262;51.978;5.924;2022-07-30T07:52:02;5.35;;;0.90;;
45536;SDS011;31262;51.978;5.924;2022-07-30T07:54:28;3.78;;;0.80;;
45536;SDS011;31262;51.978;5.924;2022-07-30T07:56:53;4.72;;;0.70;;
45536;SDS011;31262;51.978;5.924;2022-07-30T07:59:22;3.38;;;0.75;;
45536;SDS011;31262;51.978;5.924;2022-07-30T08:01:48;5.90;;;1.42;;
45536;SDS011;31262;51.978;5.924;2022-07-30T08:04:15;4.00;;;0.88;;
45536;SDS011;31262;51.978;5.924;2022-07-30T08:06:41;9.10;;;1.35;;
45536;SDS011;31262;51.978;5.924;2022-07-30T08:09:06;3.85;;;0.70;;
45536;SDS011;31262;51.978;5.924;2022-07-30T08:11:32;3.03;;;0.70;;
45536;SDS011;31262;51.978;5.924;2022-07-30T08:13:58;4.07;;;0.70;;
45536;SDS011;31262;51.978;5.924;2022-07-30T08:16:24;4.15;;;0.88;;
45536;SDS011;31262;51.978;5.924;2022-07-30T08:18:49;3.05;;;0.70;;
45536;SDS011;31262;51.978;5.924;2022-07-30T08:21:15;3.60;;;0.77;;
45536;SDS011;31262;51.978;5.924;2022-07-30T08:23:41;4.05;;;0.68;;
45536;SDS011;31262;51.978;5.924;2022-07-30T08:26:06;2.28;;;0.60;;
45536;SDS011;31262;51.978;5.924;2022-07-30T08:28:32;4.25;;;0.60;;
45536;SDS011;31262;51.978;5.924;2022-07-30T08:30:59;3.35;;;0.70;;
45536;SDS011;31262;51.978;5.924;2022-07-30T08:33:24;3.80;;;0.55;;
45536;SDS011;31262;51.978;5.924;2022-07-30T08:35:50;2.00;;;0.52;;
45536;SDS011;31262;51.978;5.924;2022-07-30T08:38:15;5.05;;;0.85;;
45536;SDS011;31262;51.978;5.924;2022-07-30T08:40:41;3.45;;;1.15;;
45536;SDS011;31262;51.978;5.924;2022-07-30T08:43:07;2.97;;;0.70;;
45536;SDS011;31262;51.978;5.924;2022-07-30T08:45:33;2.13;;;0.57;;
45536;SDS011;31262;51.978;5.924;2022-07-30T08:47:59;2.88;;;0.85;;
45536;SDS011;31262;51.978;5.924;2022-07-30T08:50:25;3.47;;;0.65;;
45536;SDS011;31262;51.978;5.924;2022-07-30T08:52:52;2.17;;;0.52;;
45536;SDS011;31262;51.978;5.924;2022-07-30T08:55:22;3.22;;;0.50;;
45536;SDS011;31262;51.978;5.924;2022-07-30T09:00:15;3.42;;;0.90;;
45536;SDS011;31262;51.978;5.924;2022-07-30T09:02:40;3.35;;;0.80;;
45536;SDS011;31262;51.978;5.924;2022-07-30T09:05:07;3.33;;;0.60;;
45536;SDS011;31262;51.978;5.924;2022-07-30T09:07:34;2.15;;;0.50;;
45536;SDS011;31262;51.978;5.924;2022-07-30T09:10:00;1.65;;;0.32;;
45536;SDS011;31262;51.978;5.924;2022-07-30T09:15:12;3.30;;;0.85;;
45536;SDS011;31262;51.978;5.924;2022-07-30T09:17:50;3.25;;;0.90;;
45536;SDS011;31262;51.978;5.924;2022-07-30T09:20:22;3.47;;;1.13;;
45536;SDS011;31262;51.978;5.924;2022-07-30T09:22:53;2.95;;;0.60;;
45536;SDS011;31262;51.978;5.924;2022-07-30T09:25:37;3.22;;;0.68;;
45536;SDS011;31262;51.978;5.924;2022-07-30T09:28:05;4.38;;;0.90;;
45536;SDS011;31262;51.978;5.924;2022-07-30T09:30:52;3.58;;;0.90;;
45536;SDS011;31262;51.978;5.924;2022-07-30T09:36:06;6.72;;;0.90;;
45536;SDS011;31262;51.978;5.924;2022-07-30T09:38:45;2.30;;;0.60;;
45536;SDS011;31262;51.978;5.924;2022-07-30T09:41:13;2.95;;;0.60;;
45536;SDS011;31262;51.978;5.924;2022-07-30T09:43:46;2.95;;;0.50;;
45536;SDS011;31262;51.978;5.924;2022-07-30T09:46:15;3.45;;;1.00;;
45536;SDS011;31262;51.978;5.924;2022-07-30T09:48:41;3.78;;;0.80;;
45536;SDS011;31262;51.978;5.924;2022-07-30T09:51:08;3.70;;;0.50;;
45536;SDS011;31262;51.978;5.924;2022-07-30T09:53:34;4.47;;;0.60;;
45536;SDS011;31262;51.978;5.924;2022-07-30T09:56:00;2.92;;;0.50;;
45536;SDS011;31262;51.978;5.924;2022-07-30T09:58:46;3.17;;;0.50;;
45536;SDS011;31262;51.978;5.924;2022-07-30T10:01:12;2.53;;;0.50;;
45536;SDS011;31262;51.978;5.924;2022-07-30T10:03:40;3.22;;;0.50;;
45536;SDS011;31262;51.978;5.924;2022-07-30T10:06:07;1.40;;;0.38;;
45536;SDS011;31262;51.978;5.924;2022-07-30T10:08:42;3.30;;;0.40;;
45536;SDS011;31262;51.978;5.924;2022-07-30T10:11:14;2.53;;;0.50;;
45536;SDS011;31262;51.978;5.924;2022-07-30T10:13:41;2.03;;;0.35;;
45536;SDS011;31262;51.978;5.924;2022-07-30T10:16:07;2.58;;;0.35;;
45536;SDS011;31262;51.978;5.924;2022-07-30T10:18:34;3.00;;;0.40;;
45536;SDS011;31262;51.978;5.924;2022-07-30T10:21:00;4.53;;;0.57;;
45536;SDS011;31262;51.978;5.924;2022-07-30T10:23:27;2.15;;;0.47;;
45536;SDS011;31262;51.978;5.924;2022-07-30T10:25:55;2.05;;;0.50;;
45536;SDS011;31262;51.978;5.924;2022-07-30T10:28:24;2.78;;;0.38;;
45536;SDS011;31262;51.978;5.924;2022-07-30T10:30:54;3.03;;;0.40;;
45536;SDS011;31262;51.978;5.924;2022-07-30T10:33:21;4.30;;;0.63;;
45536;SDS011;31262;51.978;5.924;2022-07-30T10:35:48;4.00;;;0.80;;
45536;SDS011;31262;51.978;5.924;2022-07-30T10:38:14;2.17;;;0.50;;
45536;SDS011;31262;51.978;5.924;2022-07-30T10:46:08;1.55;;;0.30;;
45536;SDS011;31262;51.978;5.924;2022-07-30T10:48:35;1.23;;;0.30;;
45536;SDS011;31262;51.978;5.924;2022-07-30T10:51:01;2.58;;;0.30;;
45536;SDS011;31262;51.978;5.924;2022-07-30T10:53:43;1.63;;;0.30;;
45536;SDS011;31262;51.978;5.924;2022-07-30T10:58:56;2.10;;;0.40;;
45536;SDS011;31262;51.978;5.924;2022-07-30T11:01:25;2.63;;;0.20;;
45536;SDS011;31262;51.978;5.924;2022-07-30T11:04:24;1.20;;;0.30;;
45536;SDS011;31262;51.978;5.924;2022-07-30T11:06:51;1.35;;;0.30;;
45536;SDS011;31262;51.978;5.924;2022-07-30T11:12:04;1.15;;;0.30;;
45536;SDS011;31262;51.978;5.924;2022-07-30T11:15:03;2.00;;;0.30;;
45536;SDS011;31262;51.978;5.924;2022-07-30T11:17:22;1.63;;;0.25;;
45536;SDS011;31262;51.978;5.924;2022-07-30T11:22:31;1.90;;;0.40;;
45536;SDS011;31262;51.978;5.924;2022-07-30T11:27:35;1.05;;;0.40;;
45536;SDS011;31262;51.978;5.924;2022-07-30T11:30:05;1.50;;;0.40;;
45536;SDS011;31262;51.978;5.924;2022-07-30T11:32:43;2.30;;;0.30;;
45536;SDS011;31262;51.978;5.924;2022-07-30T11:38:29;1.52;;;0.40;;
45536;SDS011;31262;51.978;5.924;2022-07-30T11:45:40;2.65;;;0.40;;
45536;SDS011;31262;51.978;5.924;2022-07-30T11:48:10;1.67;;;0.30;;
45536;SDS011;31262;51.978;5.924;2022-07-30T11:50:39;1.58;;;0.28;;
45536;SDS011;31262;51.978;5.924;2022-07-30T11:53:09;0.63;;;0.20;;
45536;SDS011;31262;51.978;5.924;2022-07-30T11:55:45;4.22;;;0.40;;
45536;SDS011;31262;51.978;5.924;2022-07-30T12:01:05;0.93;;;0.27;;
45536;SDS011;31262;51.978;5.924;2022-07-30T12:03:40;1.70;;;0.20;;
45536;SDS011;31262;51.978;5.924;2022-07-30T12:06:07;1.55;;;0.30;;
45536;SDS011;31262;51.978;5.924;2022-07-30T12:08:44;2.75;;;0.22;;
45536;SDS011;31262;51.978;5.924;2022-07-30T12:11:12;1.98;;;0.30;;
45536;SDS011;31262;51.978;5.924;2022-07-30T12:13:40;1.13;;;0.22;;
45536;SDS011;31262;51.978;5.924;2022-07-30T12:16:11;4.50;;;0.40;;
45536;SDS011;31262;51.978;5.924;2022-07-30T12:18:39;1.02;;;0.30;;
45536;SDS011;31262;51.978;5.924;2022-07-30T12:21:07;1.17;;;0.30;;
45536;SDS011;31262;51.978;5.924;2022-07-30T12:23:37;2.33;;;0.40;;
45536;SDS011;31262;51.978;5.924;2022-07-30T12:26:03;2.22;;;0.50;;
45536;SDS011;31262;51.978;5.924;2022-07-30T12:28:30;1.95;;;0.40;;
45536;SDS011;31262;51.978;5.924;2022-07-30T12:30:58;2.65;;;0.30;;
45536;SDS011;31262;51.978;5.924;2022-07-30T12:33:24;1.83;;;0.30;;
45536;SDS011;31262;51.978;5.924;2022-07-30T12:35:51;2.33;;;0.28;;
45536;SDS011;31262;51.978;5.924;2022-07-30T12:38:20;1.58;;;0.30;;
45536;SDS011;31262;51.978;5.924;2022-07-30T12:40:50;2.38;;;0.40;;
45536;SDS011;31262;51.978;5.924;2022-07-30T12:46:12;1.83;;;0.30;;
45536;SDS011;31262;51.978;5.924;2022-07-30T12:48:50;3.03;;;0.40;;
45536;SDS011;31262;51.978;5.924;2022-07-30T12:51:27;2.15;;;0.40;;
45536;SDS011;31262;51.978;5.924;2022-07-30T12:53:56;1.58;;;0.30;;
45536;SDS011;31262;51.978;5.924;2022-07-30T12:56:24;1.70;;;0.30;;
45536;SDS011;31262;51.978;5.924;2022-07-30T12:58:52;1.80;;;0.30;;
45536;SDS011;31262;51.978;5.924;2022-07-30T13:01:18;1.58;;;0.40;;
45536;SDS011;31262;51.978;5.924;2022-07-30T13:04:06;1.75;;;0.40;;
45536;SDS011;31262;51.978;5.924;2022-07-30T13:06:32;1.52;;;0.30;;
45536;SDS011;31262;51.978;5.924;2022-07-30T13:08:59;1.17;;;0.40;;
45536;SDS011;31262;51.978;5.924;2022-07-30T13:11:41;1.88;;;0.40;;
45536;SDS011;31262;51.978;5.924;2022-07-30T13:14:09;3.03;;;0.50;;
45536;SDS011;31262;51.978;5.924;2022-07-30T13:16:37;1.88;;;0.50;;
45536;SDS011;31262;51.978;5.924;2022-07-30T13:19:04;2.83;;;0.50;;
45536;SDS011;31262;51.978;5.924;2022-07-30T13:21:30;3.50;;;0.40;;
45536;SDS011;31262;51.978;5.924;2022-07-30T13:23:58;1.20;;;0.30;;
45536;SDS011;31262;51.978;5.924;2022-07-30T13:26:24;3.00;;;0.40;;
45536;SDS011;31262;51.978;5.924;2022-07-30T13:28:50;3.10;;;0.40;;
45536;SDS011;31262;51.978;5.924;2022-07-30T13:31:15;1.80;;;0.32;;
45536;SDS011;31262;51.978;5.924;2022-07-30T13:33:42;1.52;;;0.40;;
45536;SDS011;31262;51.978;5.924;2022-07-30T13:36:08;1.45;;;0.30;;
45536;SDS011;31262;51.978;5.924;2022-07-30T13:38:33;0.93;;;0.30;;
45536;SDS011;31262;51.978;5.924;2022-07-30T13:40:59;1.23;;;0.30;;
45536;SDS011;31262;51.978;5.924;2022-07-30T13:43:25;1.25;;;0.30;;
45536;SDS011;31262;51.978;5.924;2022-07-30T13:45:51;1.67;;;0.40;;
45536;SDS011;31262;51.978;5.924;2022-07-30T13:48:17;1.77;;;0.40;;
45536;SDS011;31262;51.978;5.924;2022-07-30T13:50:43;4.28;;;0.38;;
45536;SDS011;31262;51.978;5.924;2022-07-30T13:53:10;3.42;;;0.73;;
45536;SDS011;31262;51.978;5.924;2022-07-30T13:55:36;1.73;;;0.50;;
45536;SDS011;31262;51.978;5.924;2022-07-30T13:58:03;2.67;;;0.40;;
45536;SDS011;31262;51.978;5.924;2022-07-30T14:00:30;1.85;;;0.32;;
45536;SDS011;31262;51.978;5.924;2022-07-30T14:03:00;2.03;;;0.30;;
45536;SDS011;31262;51.978;5.924;2022-07-30T14:05:26;1.58;;;0.30;;
45536;SDS011;31262;51.978;5.924;2022-07-30T14:07:52;3.33;;;0.40;;
45536;SDS011;31262;51.978;5.924;2022-07-30T14:10:18;1.83;;;0.40;;
45536;SDS011;31262;51.978;5.924;2022-07-30T14:12:47;0.88;;;0.30;;
45536;SDS011;31262;51.978;5.924;2022-07-30T14:15:19;0.98;;;0.30;;
45536;SDS011;31262;51.978;5.924;2022-07-30T14:17:45;1.20;;;0.20;;
45536;SDS011;31262;51.978;5.924;2022-07-30T14:20:11;1.40;;;0.40;;
45536;SDS011;31262;51.978;5.924;2022-07-30T14:22:37;2.55;;;0.30;;
45536;SDS011;31262;51.978;5.924;2022-07-30T14:25:03;1.45;;;0.30;;
45536;SDS011;31262;51.978;5.924;2022-07-30T14:27:29;1.85;;;0.50;;
45536;SDS011;31262;51.978;5.924;2022-07-30T14:29:54;1.95;;;0.32;;
45536;SDS011;31262;51.978;5.924;2022-07-30T14:32:20;3.42;;;0.40;;
45536;SDS011;31262;51.978;5.924;2022-07-30T14:34:46;2.80;;;0.40;;
45536;SDS011;31262;51.978;5.924;2022-07-30T14:37:11;1.08;;;0.30;;
45536;SDS011;31262;51.978;5.924;2022-07-30T14:39:37;1.27;;;0.30;;
45536;SDS011;31262;51.978;5.924;2022-07-30T14:42:02;1.33;;;0.30;;
45536;SDS011;31262;51.978;5.924;2022-07-30T14:44:30;2.25;;;0.30;;
45536;SDS011;31262;51.978;5.924;2022-07-30T14:46:56;2.38;;;0.32;;
45536;SDS011;31262;51.978;5.924;2022-07-30T14:49:22;1.77;;;0.35;;
45536;SDS011;31262;51.978;5.924;2022-07-30T14:51:47;1.50;;;0.28;;
45536;SDS011;31262;51.978;5.924;2022-07-30T14:54:13;1.10;;;0.20;;
45536;SDS011;31262;51.978;5.924;2022-07-30T14:56:39;1.38;;;0.30;;
45536;SDS011;31262;51.978;5.924;2022-07-30T14:59:04;1.23;;;0.32;;
45536;SDS011;31262;51.978;5.924;2022-07-30T15:01:31;2.72;;;0.40;;
45536;SDS011;31262;51.978;5.924;2022-07-30T15:03:57;3.30;;;0.93;;
45536;SDS011;31262;51.978;5.924;2022-07-30T15:06:23;2.13;;;0.40;;
45536;SDS011;31262;51.978;5.924;2022-07-30T15:08:50;1.13;;;0.30;;
45536;SDS011;31262;51.978;5.924;2022-07-30T15:11:16;1.88;;;0.30;;
45536;SDS011;31262;51.978;5.924;2022-07-30T15:13:42;7.03;;;0.40;;
45536;SDS011;31262;51.978;5.924;2022-07-30T15:16:08;1.52;;;0.30;;
45536;SDS011;31262;51.978;5.924;2022-07-30T15:18:34;2.00;;;0.32;;
45536;SDS011;31262;51.978;5.924;2022-07-30T15:20:59;2.67;;;0.40;;
45536;SDS011;31262;51.978;5.924;2022-07-30T15:23:25;2.35;;;0.40;;
45536;SDS011;31262;51.978;5.924;2022-07-30T15:25:51;4.38;;;0.40;;
45536;SDS011;31262;51.978;5.924;2022-07-30T15:28:16;1.30;;;0.30;;
45536;SDS011;31262;51.978;5.924;2022-07-30T15:30:42;3.83;;;0.57;;
45536;SDS011;31262;51.978;5.924;2022-07-30T15:33:07;1.42;;;0.45;;
45536;SDS011;31262;51.978;5.924;2022-07-30T15:35:33;1.70;;;0.45;;